createdAt,value
2018-06-27T00:00:21.352Z,11.57
2018-06-27T00:01:21.228Z,11.57
2018-06-27T00:02:21.143Z,11.60
2018-06-27T00:03:21.046Z,11.72
2018-06-27T00:04:20.958Z,11.72
2018-06-27T00:05:20.896Z,11.77
2018-06-27T00:06:20.774Z,11.88
2018-06-27T00:07:20.680Z,11.93
2018-06-27T00:08:20.590Z,11.93
2018-06-27T00:09:20.499Z,12.01
2018-06-27T00:10:20.436Z,12.00
2018-06-27T00:11:20.311Z,11.94
2018-06-27T00:12:20.222Z,11.94
2018-06-27T00:13:20.129Z,11.87
2018-06-27T00:14:20.035Z,11.81
2018-06-27T00:15:19.977Z,11.75
2018-06-27T00:16:19.855Z,11.69
2018-06-27T00:17:19.762Z,11.64
2018-06-27T00:18:19.673Z,11.63
2018-06-27T00:19:19.595Z,11.51
2018-06-27T00:20:19.526Z,11.54
2018-06-27T00:21:19.400Z,11.51
2018-06-27T00:22:19.303Z,11.54
2018-06-27T00:23:19.225Z,11.53
2018-06-27T00:24:19.121Z,11.54
2018-06-27T00:25:19.057Z,11.54
2018-06-27T00:26:18.935Z,11.39
2018-06-27T00:27:18.842Z,11.28
2018-06-27T00:28:18.752Z,11.26
2018-06-27T00:29:18.662Z,11.23
2018-06-27T00:30:18.595Z,11.35
2018-06-27T00:31:18.474Z,11.41
2018-06-27T00:32:18.385Z,11.38
2018-06-27T00:33:18.309Z,11.33
2018-06-27T00:34:18.201Z,11.38
2018-06-27T00:35:18.136Z,11.27
2018-06-27T00:36:18.028Z,11.27
2018-06-27T00:37:17.923Z,11.19
2018-06-27T00:38:17.830Z,11.21
2018-06-27T00:39:17.743Z,11.21
2018-06-27T00:40:17.679Z,11.30
2018-06-27T00:41:17.557Z,11.16
2018-06-27T00:42:17.464Z,11.16
2018-06-27T00:43:17.370Z,11.19
2018-06-27T00:44:17.280Z,11.16
2018-06-27T00:45:17.220Z,11.20
2018-06-27T00:46:17.093Z,11.24
2018-06-27T00:47:17.002Z,11.16
2018-06-27T00:48:16.909Z,11.16
2018-06-27T00:49:16.819Z,11.13
2018-06-27T00:50:16.763Z,11.05
2018-06-27T00:51:16.634Z,10.94
2018-06-27T00:52:16.545Z,10.94
2018-06-27T00:53:16.451Z,10.86
2018-06-27T00:54:16.359Z,10.88
2018-06-27T00:55:16.295Z,10.91
2018-06-27T00:56:16.172Z,10.94
2018-06-27T00:57:16.081Z,10.83
2018-06-27T00:58:15.990Z,10.83
2018-06-27T00:59:15.897Z,10.83
2018-06-27T01:00:15.836Z,10.84
2018-06-27T01:01:15.719Z,10.94
2018-06-27T01:02:15.623Z,11.08
2018-06-27T01:03:15.528Z,11.11
2018-06-27T01:04:15.436Z,11.16
2018-06-27T01:05:15.377Z,11.13
2018-06-27T01:06:15.258Z,11.19
2018-06-27T01:07:15.158Z,11.21
2018-06-27T01:08:15.069Z,11.27
2018-06-27T01:09:15.230Z,11.17
2018-06-27T01:10:14.913Z,11.16
2018-06-27T01:11:14.789Z,11.20
2018-06-27T01:12:14.699Z,11.08
2018-06-27T01:13:14.608Z,11.09
2018-06-27T01:14:14.521Z,11.05
2018-06-27T01:15:14.420Z,10.99
2018-06-27T01:16:14.450Z,11.03
2018-06-27T01:17:14.237Z,11.05
2018-06-27T01:18:14.145Z,11.11
2018-06-27T01:19:14.054Z,11.13
2018-06-27T01:20:14.003Z,11.19
2018-06-27T01:21:13.874Z,11.06
2018-06-27T01:22:13.777Z,11.06
2018-06-27T01:23:13.771Z,11.11
2018-06-27T01:24:13.592Z,10.95
2018-06-27T01:25:13.502Z,11.12
2018-06-27T01:26:13.438Z,10.87
2018-06-27T01:27:13.312Z,10.86
2018-06-27T01:28:13.223Z,10.73
2018-06-27T01:29:13.128Z,10.68
2018-06-27T01:30:13.125Z,10.63
2018-06-27T01:31:12.977Z,10.62
2018-06-27T01:32:12.855Z,10.73
2018-06-27T01:33:12.762Z,10.62
2018-06-27T01:34:12.667Z,10.75
2018-06-27T01:35:12.575Z,10.78
2018-06-27T01:36:12.515Z,10.95
2018-06-27T01:37:12.479Z,11.06
2018-06-27T01:38:12.299Z,11.08
2018-06-27T01:39:12.204Z,11.03
2018-06-27T01:40:12.118Z,10.93
2018-06-27T01:41:12.054Z,10.95
2018-06-27T01:42:11.932Z,10.83
2018-06-27T01:43:11.839Z,10.81
2018-06-27T01:44:11.837Z,10.84
2018-06-27T01:45:11.672Z,10.76
2018-06-27T01:46:11.590Z,10.78
2018-06-27T01:47:11.468Z,10.65
2018-06-27T01:48:11.374Z,10.66
2018-06-27T01:49:11.279Z,10.70
2018-06-27T01:50:11.193Z,10.70
2018-06-27T01:51:11.216Z,10.60
2018-06-27T01:52:11.005Z,10.54
2018-06-27T01:53:10.930Z,10.55
2018-06-27T01:54:10.820Z,10.58
2018-06-27T01:55:10.742Z,10.46
2018-06-27T01:56:10.674Z,10.49
2018-06-27T01:57:10.543Z,10.43
2018-06-27T01:58:10.539Z,10.44
2018-06-27T01:59:10.356Z,10.46
2018-06-27T02:00:10.262Z,10.51
2018-06-27T02:01:10.207Z,10.62
2018-06-27T02:02:10.077Z,10.72
2018-06-27T02:03:09.987Z,10.65
2018-06-27T02:04:09.894Z,10.78
2018-06-27T02:05:09.798Z,10.69
2018-06-27T02:06:09.738Z,10.62
2018-06-27T02:07:09.617Z,10.39
2018-06-27T02:08:09.523Z,10.62
2018-06-27T02:09:09.430Z,10.51
2018-06-27T02:10:09.339Z,10.36
2018-06-27T02:11:09.277Z,10.57
2018-06-27T02:12:09.243Z,10.42
2018-06-27T02:13:09.059Z,10.42
2018-06-27T02:14:08.981Z,10.36
2018-06-27T02:15:08.876Z,10.32
2018-06-27T02:16:08.828Z,10.44
2018-06-27T02:17:08.690Z,10.18
2018-06-27T02:18:08.594Z,10.32
2018-06-27T02:19:08.505Z,10.22
2018-06-27T02:20:08.411Z,10.13
2018-06-27T02:21:08.353Z,10.16
2018-06-27T02:22:08.225Z,10.06
2018-06-27T02:23:08.133Z,10.10
2018-06-27T02:24:08.040Z,10.13
2018-06-27T02:25:07.950Z,10.11
2018-06-27T02:26:07.886Z,10.14
2018-06-27T02:27:07.759Z,10.01
2018-06-27T02:28:07.669Z,9.95
2018-06-27T02:29:07.576Z,9.95
2018-06-27T02:30:07.494Z,9.96
2018-06-27T02:31:07.423Z,9.95
2018-06-27T02:32:07.304Z,9.99
2018-06-27T02:33:07.205Z,9.95
2018-06-27T02:34:07.112Z,9.98
2018-06-27T02:35:07.022Z,10.02
2018-06-27T02:36:06.971Z,10.01
2018-06-27T02:37:06.833Z,10.04
2018-06-27T02:38:06.738Z,10.16
2018-06-27T02:39:06.648Z,10.16
2018-06-27T02:40:06.552Z,10.26
2018-06-27T02:41:06.493Z,10.26
2018-06-27T02:42:06.372Z,10.28
2018-06-27T02:43:06.275Z,10.32
2018-06-27T02:44:06.184Z,10.17
2018-06-27T02:45:06.089Z,10.24
2018-06-27T02:46:06.028Z,10.31
2018-06-27T02:47:05.903Z,10.17
2018-06-27T02:48:05.811Z,10.16
2018-06-27T02:49:05.720Z,10.01
2018-06-27T02:50:05.624Z,10.14
2018-06-27T02:51:05.562Z,10.09
2018-06-27T02:52:05.440Z,9.96
2018-06-27T02:53:05.348Z,9.99
2018-06-27T02:54:05.249Z,9.93
2018-06-27T02:55:05.159Z,9.93
2018-06-27T02:56:05.083Z,9.96
2018-06-27T02:57:05.015Z,9.96
2018-06-27T02:58:04.885Z,9.98
2018-06-27T02:59:04.787Z,10.02
2018-06-27T03:00:04.692Z,10.07
2018-06-27T03:01:04.605Z,10.09
2018-06-27T03:02:04.541Z,9.96
2018-06-27T03:03:04.414Z,10.01
2018-06-27T03:04:04.323Z,10.02
2018-06-27T03:05:04.230Z,10.01
2018-06-27T03:06:04.136Z,9.95
2018-06-27T03:07:04.071Z,9.99
2018-06-27T03:08:03.949Z,10.06
2018-06-27T03:09:03.856Z,10.04
2018-06-27T03:10:03.762Z,10.10
2018-06-27T03:11:03.674Z,10.09
2018-06-27T03:12:03.607Z,10.09
2018-06-27T03:13:03.508Z,10.16
2018-06-27T03:14:03.389Z,10.25
2018-06-27T03:15:03.300Z,10.11
2018-06-27T03:16:03.205Z,10.04
2018-06-27T03:17:03.149Z,9.96
2018-06-27T03:18:03.024Z,9.88
2018-06-27T03:19:02.921Z,9.83
2018-06-27T03:20:02.833Z,9.81
2018-06-27T03:21:02.737Z,9.77
2018-06-27T03:22:02.684Z,9.78
2018-06-27T03:23:02.552Z,9.77
2018-06-27T03:24:02.459Z,9.68
2018-06-27T03:25:02.364Z,9.78
2018-06-27T03:26:02.272Z,9.83
2018-06-27T03:27:02.233Z,9.81
2018-06-27T03:28:02.190Z,9.98
2018-06-27T03:29:01.993Z,9.99
2018-06-27T03:30:01.901Z,9.93
2018-06-27T03:31:01.810Z,9.88
2018-06-27T03:32:01.746Z,9.91
2018-06-27T03:33:01.625Z,9.91
2018-06-27T03:34:01.526Z,9.83
2018-06-27T03:35:01.437Z,9.92
2018-06-27T03:36:01.344Z,9.80
2018-06-27T03:37:01.282Z,9.83
2018-06-27T03:38:01.153Z,9.83
2018-06-27T03:39:01.059Z,9.83
2018-06-27T03:40:00.965Z,9.81
2018-06-27T03:41:00.884Z,9.85
2018-06-27T03:42:00.905Z,9.85
2018-06-27T03:43:00.686Z,9.73
2018-06-27T03:44:00.596Z,9.75
2018-06-27T03:45:00.504Z,9.81
2018-06-27T03:46:00.429Z,9.78
2018-06-27T03:47:00.349Z,9.81
2018-06-27T03:48:00.222Z,9.95
2018-06-27T03:49:00.229Z,10.04
2018-06-27T03:50:00.043Z,10.13
2018-06-27T03:50:59.944Z,10.22
2018-06-27T03:51:59.894Z,10.16
2018-06-27T03:52:59.757Z,10.28
2018-06-27T03:53:59.663Z,10.32
2018-06-27T03:54:59.573Z,10.35
2018-06-27T03:55:59.565Z,10.32
2018-06-27T03:56:59.418Z,10.47
2018-06-27T03:57:59.292Z,10.43
2018-06-27T03:58:59.207Z,10.36
2018-06-27T03:59:59.104Z,10.39
2018-06-27T04:00:59.013Z,10.38
2018-06-27T04:01:58.951Z,10.54
2018-06-27T04:02:58.919Z,10.44
2018-06-27T04:03:58.732Z,10.36
2018-06-27T04:04:58.642Z,10.42
2018-06-27T04:05:58.548Z,10.39
2018-06-27T04:06:58.488Z,10.32
2018-06-27T04:07:58.361Z,10.35
2018-06-27T04:08:58.270Z,10.36
2018-06-27T04:09:58.267Z,10.42
2018-06-27T04:10:58.082Z,10.42
2018-06-27T04:11:58.023Z,10.32
2018-06-27T04:12:58.058Z,10.42
2018-06-27T04:13:57.806Z,10.52
2018-06-27T04:14:57.712Z,10.46
2018-06-27T04:15:57.621Z,10.57
2018-06-27T04:16:57.649Z,10.58
2018-06-27T04:17:57.433Z,10.58
2018-06-27T04:18:57.340Z,10.57
2018-06-27T04:19:57.249Z,10.62
2018-06-27T04:20:57.154Z,10.62
2018-06-27T04:21:57.092Z,10.68
2018-06-27T04:22:56.969Z,10.66
2018-06-27T04:23:56.967Z,10.78
2018-06-27T04:24:56.781Z,10.86
2018-06-27T04:25:56.692Z,10.84
2018-06-27T04:26:56.600Z,10.93
2018-06-27T04:27:56.538Z,11.02
2018-06-27T04:28:56.415Z,11.06
2018-06-27T04:29:56.321Z,11.03
2018-06-27T04:30:56.321Z,11.20
2018-06-27T04:31:56.136Z,11.26
2018-06-27T04:32:56.077Z,11.26
2018-06-27T04:33:55.950Z,11.38
2018-06-27T04:34:55.861Z,11.39
2018-06-27T04:35:55.793Z,11.41
2018-06-27T04:36:55.677Z,11.49
2018-06-27T04:37:55.689Z,11.51
2018-06-27T04:38:55.489Z,11.54
2018-06-27T04:39:55.395Z,11.51
2018-06-27T04:40:55.306Z,11.60
2018-06-27T04:41:55.217Z,11.69
2018-06-27T04:42:55.149Z,11.74
2018-06-27T04:43:55.035Z,11.75
2018-06-27T04:44:55.030Z,11.85
2018-06-27T04:45:54.843Z,11.97
2018-06-27T04:46:54.754Z,12.01
2018-06-27T04:47:54.693Z,12.05
2018-06-27T04:48:54.571Z,12.15
2018-06-27T04:49:54.479Z,12.26
2018-06-27T04:50:54.382Z,12.41
2018-06-27T04:51:54.296Z,12.46
2018-06-27T04:52:54.230Z,12.56
2018-06-27T04:53:54.112Z,12.61
2018-06-27T04:54:54.072Z,12.63
2018-06-27T04:55:53.929Z,12.67
2018-06-27T04:56:53.834Z,12.80
2018-06-27T04:57:53.773Z,12.81
2018-06-27T04:58:53.651Z,12.74
2018-06-27T04:59:53.562Z,12.95
2018-06-27T05:00:53.469Z,12.98
2018-06-27T05:01:53.378Z,13.06
2018-06-27T05:02:53.321Z,13.13
2018-06-27T05:03:53.194Z,13.06
2018-06-27T05:04:53.103Z,13.19
2018-06-27T05:05:53.014Z,13.04
2018-06-27T05:06:52.920Z,13.19
2018-06-27T05:07:52.861Z,13.17
2018-06-27T05:08:52.738Z,13.25
2018-06-27T05:09:52.649Z,13.21
2018-06-27T05:10:52.555Z,13.22
2018-06-27T05:11:52.464Z,13.21
2018-06-27T05:12:52.408Z,13.32
2018-06-27T05:13:52.284Z,13.29
2018-06-27T05:14:52.195Z,13.29
2018-06-27T05:15:52.111Z,13.35
2018-06-27T05:16:52.014Z,13.43
2018-06-27T05:17:51.952Z,13.46
2018-06-27T05:18:51.830Z,13.43
2018-06-27T05:19:51.753Z,13.51
2018-06-27T05:20:51.651Z,13.46
2018-06-27T05:21:51.608Z,13.59
2018-06-27T05:22:51.499Z,13.62
2018-06-27T05:23:51.377Z,13.61
2018-06-27T05:24:51.287Z,13.61
2018-06-27T05:25:51.196Z,13.71
2018-06-27T05:26:51.101Z,13.76
2018-06-27T05:27:51.014Z,13.79
2018-06-27T05:28:50.954Z,13.87
2018-06-27T05:29:50.830Z,13.84
2018-06-27T05:30:50.740Z,13.90
2018-06-27T05:31:50.649Z,13.88
2018-06-27T05:32:50.563Z,13.96
2018-06-27T05:33:50.534Z,14.08
2018-06-27T05:34:50.377Z,14.01
2018-06-27T05:35:50.286Z,14.05
2018-06-27T05:36:50.202Z,14.12
2018-06-27T05:37:50.105Z,14.08
2018-06-27T05:38:50.047Z,14.13
2018-06-27T05:39:49.925Z,14.09
2018-06-27T05:40:49.834Z,14.11
2018-06-27T05:41:49.746Z,14.21
2018-06-27T05:42:49.660Z,14.21
2018-06-27T05:43:49.595Z,14.36
2018-06-27T05:44:49.478Z,14.38
2018-06-27T05:45:49.383Z,14.36
2018-06-27T05:46:49.296Z,14.54
2018-06-27T05:47:49.206Z,14.57
2018-06-27T05:48:49.145Z,14.66
2018-06-27T05:49:49.023Z,14.78
2018-06-27T05:50:48.938Z,14.80
2018-06-27T05:51:48.846Z,14.93
2018-06-27T05:52:48.755Z,14.97
2018-06-27T05:53:48.692Z,15.00
2018-06-27T05:54:48.572Z,15.15
2018-06-27T05:55:48.486Z,15.22
2018-06-27T05:56:48.394Z,15.20
2018-06-27T05:57:48.302Z,15.34
2018-06-27T05:58:48.246Z,15.37
2018-06-27T05:59:48.127Z,15.48
2018-06-27T06:00:48.039Z,15.55
2018-06-27T06:01:47.945Z,15.66
2018-06-27T06:02:47.856Z,15.67
2018-06-27T06:03:47.810Z,15.66
2018-06-27T06:04:47.680Z,15.76
2018-06-27T06:05:47.590Z,15.81
2018-06-27T06:06:47.499Z,15.84
2018-06-27T06:07:47.505Z,15.93
2018-06-27T06:08:47.351Z,15.89
2018-06-27T06:09:47.229Z,16.13
2018-06-27T06:10:47.141Z,16.26
2018-06-27T06:11:47.066Z,16.26
2018-06-27T06:12:47.030Z,16.10
2018-06-27T06:13:46.905Z,16.23
2018-06-27T06:14:46.882Z,16.18
2018-06-27T06:15:46.694Z,16.22
2018-06-27T06:16:46.606Z,16.32
2018-06-27T06:17:46.515Z,16.47
2018-06-27T06:18:46.460Z,16.48
2018-06-27T06:19:46.387Z,16.60
2018-06-27T06:20:46.256Z,16.73
2018-06-27T06:21:46.161Z,16.70
2018-06-27T06:22:46.086Z,16.70
2018-06-27T06:23:46.019Z,16.75
2018-06-27T06:24:45.899Z,16.87
2018-06-27T06:25:45.808Z,16.84
2018-06-27T06:26:45.720Z,16.80
2018-06-27T06:27:45.633Z,16.75
2018-06-27T06:28:45.571Z,16.77
2018-06-27T06:29:45.451Z,16.59
2018-06-27T06:30:45.365Z,16.47
2018-06-27T06:31:45.280Z,16.55
2018-06-27T06:32:45.190Z,16.44
2018-06-27T06:33:45.098Z,16.34
2018-06-27T06:34:45.040Z,16.37
2018-06-27T06:35:44.925Z,16.27
2018-06-27T06:36:44.835Z,16.32
2018-06-27T06:37:44.745Z,16.44
2018-06-27T06:38:44.662Z,16.48
2018-06-27T06:39:44.602Z,16.67
2018-06-27T06:40:44.496Z,16.82
2018-06-27T06:41:44.392Z,16.95
2018-06-27T06:42:44.303Z,16.92
2018-06-27T06:43:44.220Z,17.05
2018-06-27T06:44:44.161Z,17.03
2018-06-27T06:45:44.038Z,17.02
2018-06-27T06:46:43.954Z,17.03
2018-06-27T06:47:43.867Z,17.02
2018-06-27T06:48:43.777Z,17.02
2018-06-27T06:49:43.720Z,17.03
2018-06-27T06:50:43.601Z,17.07
2018-06-27T06:51:43.518Z,17.09
2018-06-27T06:52:43.424Z,17.05
2018-06-27T06:53:43.338Z,17.03
2018-06-27T06:54:43.278Z,16.98
2018-06-27T06:55:43.162Z,16.92
2018-06-27T06:56:43.073Z,16.98
2018-06-27T06:57:43.238Z,16.95
2018-06-27T06:58:42.910Z,16.90
2018-06-27T06:59:42.842Z,16.92
2018-06-27T07:00:42.723Z,16.91
2018-06-27T07:01:42.638Z,16.95
2018-06-27T07:02:42.548Z,16.92
2018-06-27T07:03:42.458Z,17.07
2018-06-27T07:04:42.514Z,17.09
2018-06-27T07:05:42.282Z,16.99
2018-06-27T07:06:42.194Z,17.03
2018-06-27T07:07:42.107Z,17.15
2018-06-27T07:08:42.023Z,17.20
2018-06-27T07:09:41.964Z,17.22
2018-06-27T07:10:41.845Z,17.22
2018-06-27T07:11:41.850Z,17.33
2018-06-27T07:12:41.671Z,17.35
2018-06-27T07:13:41.587Z,17.45
2018-06-27T07:14:41.526Z,17.45
2018-06-27T07:15:41.417Z,17.65
2018-06-27T07:16:41.319Z,17.68
2018-06-27T07:17:41.264Z,17.76
2018-06-27T07:18:41.234Z,17.79
2018-06-27T07:19:41.091Z,17.91
2018-06-27T07:20:40.970Z,17.83
2018-06-27T07:21:40.885Z,17.95
2018-06-27T07:22:40.797Z,17.81
2018-06-27T07:23:40.713Z,17.84
2018-06-27T07:24:40.655Z,17.79
2018-06-27T07:25:40.543Z,17.80
2018-06-27T07:26:40.451Z,17.71
2018-06-27T07:27:40.366Z,17.71
2018-06-27T07:28:40.357Z,17.79
2018-06-27T07:29:40.223Z,17.92
2018-06-27T07:30:40.103Z,17.94
2018-06-27T07:31:40.020Z,18.16
2018-06-27T07:32:40.027Z,18.28
2018-06-27T07:33:39.845Z,18.96
2018-06-27T07:34:39.789Z,19.49
2018-06-27T07:35:39.671Z,19.60
2018-06-27T07:36:39.585Z,20.02
2018-06-27T07:37:39.505Z,20.25
2018-06-27T07:38:39.411Z,20.56
2018-06-27T07:39:39.360Z,20.48
2018-06-27T07:40:39.238Z,20.46
2018-06-27T07:41:39.153Z,20.41
2018-06-27T07:42:39.069Z,20.48
2018-06-27T07:43:38.980Z,20.51
2018-06-27T07:44:38.935Z,20.88
2018-06-27T07:45:38.811Z,21.15
2018-06-27T07:46:38.730Z,21.21
2018-06-27T07:47:38.642Z,21.28
2018-06-27T07:48:38.561Z,21.42
2018-06-27T07:49:38.506Z,20.90
2018-06-27T07:50:38.389Z,20.25
2018-06-27T07:51:38.305Z,19.65
2018-06-27T07:52:38.220Z,18.97
2018-06-27T07:53:38.135Z,18.87
2018-06-27T07:54:38.083Z,18.76
2018-06-27T07:55:37.969Z,18.86
2018-06-27T07:56:37.884Z,19.07
2018-06-27T07:57:37.796Z,19.32
2018-06-27T07:58:37.715Z,19.87
2018-06-27T07:59:37.646Z,20.48
2018-06-27T08:00:37.579Z,20.73
2018-06-27T08:01:37.462Z,20.98
2018-06-27T08:02:37.378Z,21.31
2018-06-27T08:03:37.293Z,21.53
2018-06-27T08:04:37.212Z,21.21
2018-06-27T08:05:37.155Z,21.01
2018-06-27T08:06:37.041Z,21.00
2018-06-27T08:07:36.957Z,20.61
2018-06-27T08:08:36.876Z,20.93
2018-06-27T08:09:36.790Z,20.96
2018-06-27T08:10:36.734Z,21.27
2018-06-27T08:11:36.622Z,21.22
2018-06-27T08:12:36.596Z,21.64
2018-06-27T08:13:36.455Z,21.61
2018-06-27T08:14:36.372Z,21.71
2018-06-27T08:15:36.320Z,22.15
2018-06-27T08:16:36.203Z,22.23
2018-06-27T08:17:36.195Z,22.26
2018-06-27T08:18:36.039Z,21.73
2018-06-27T08:19:35.954Z,21.81
2018-06-27T08:20:35.906Z,22.21
2018-06-27T08:21:35.789Z,22.05
2018-06-27T08:22:35.716Z,22.29
2018-06-27T08:23:35.624Z,22.39
2018-06-27T08:24:35.544Z,22.11
2018-06-27T08:25:35.491Z,22.19
2018-06-27T08:26:35.379Z,22.04
2018-06-27T08:27:35.293Z,22.48
2018-06-27T08:28:35.213Z,22.56
2018-06-27T08:29:35.128Z,23.00
2018-06-27T08:30:35.074Z,23.26
2018-06-27T08:31:34.963Z,23.49
2018-06-27T08:32:34.926Z,23.56
2018-06-27T08:33:34.800Z,23.71
2018-06-27T08:34:34.720Z,23.29
2018-06-27T08:35:34.671Z,22.96
2018-06-27T08:36:34.554Z,22.39
2018-06-27T08:37:34.476Z,22.14
2018-06-27T08:38:34.391Z,21.81
2018-06-27T08:39:34.313Z,21.85
2018-06-27T08:40:34.264Z,22.39
2018-06-27T08:41:34.146Z,22.91
2018-06-27T08:42:34.063Z,23.47
2018-06-27T08:43:33.985Z,23.41
2018-06-27T08:44:33.901Z,23.15
2018-06-27T08:45:33.849Z,22.52
2018-06-27T08:46:33.737Z,22.42
2018-06-27T08:47:33.659Z,22.91
2018-06-27T08:48:33.580Z,22.99
2018-06-27T08:49:33.492Z,22.44
2018-06-27T08:50:33.447Z,22.29
2018-06-27T08:51:33.330Z,22.38
2018-06-27T08:52:33.252Z,21.77
2018-06-27T08:53:33.168Z,21.34
2018-06-27T08:54:33.088Z,21.31
2018-06-27T08:55:33.132Z,21.03
2018-06-27T08:56:32.929Z,21.01
2018-06-27T08:57:32.845Z,21.15
2018-06-27T08:58:32.764Z,21.48
2018-06-27T08:59:32.681Z,21.28
2018-06-27T09:00:32.633Z,21.51
2018-06-27T09:01:32.517Z,22.26
2018-06-27T09:02:32.528Z,22.15
2018-06-27T09:03:32.352Z,21.53
2018-06-27T09:04:32.274Z,21.42
2018-06-27T09:05:32.225Z,21.24
2018-06-27T09:06:32.108Z,20.98
2018-06-27T09:07:32.025Z,20.98
2018-06-27T09:08:31.946Z,20.88
2018-06-27T09:09:31.959Z,20.72
2018-06-27T09:10:31.811Z,20.85
2018-06-27T09:11:31.695Z,20.72
2018-06-27T09:12:31.616Z,20.87
2018-06-27T09:13:31.534Z,20.71
2018-06-27T09:14:31.453Z,20.66
2018-06-27T09:15:31.402Z,20.90
2018-06-27T09:16:31.380Z,20.93
2018-06-27T09:17:31.199Z,20.96
2018-06-27T09:18:31.124Z,20.63
2018-06-27T09:19:31.038Z,20.69
2018-06-27T09:20:30.987Z,20.54
2018-06-27T09:21:30.870Z,20.40
2018-06-27T09:22:30.787Z,20.20
2018-06-27T09:23:30.797Z,20.40
2018-06-27T09:24:30.620Z,20.44
2018-06-27T09:25:30.538Z,21.21
2018-06-27T09:26:30.487Z,21.77
2018-06-27T09:27:30.371Z,22.35
2018-06-27T09:28:30.289Z,22.72
2018-06-27T09:29:30.205Z,22.67
2018-06-27T09:30:30.233Z,22.97
2018-06-27T09:31:30.076Z,23.26
2018-06-27T09:32:29.958Z,23.59
2018-06-27T09:33:29.874Z,23.60
2018-06-27T09:34:29.788Z,23.53
2018-06-27T09:35:29.713Z,23.26
2018-06-27T09:36:29.655Z,23.15
2018-06-27T09:37:29.640Z,23.19
2018-06-27T09:38:29.464Z,22.46
2018-06-27T09:39:29.380Z,22.15
2018-06-27T09:40:29.305Z,21.75
2018-06-27T09:41:29.250Z,21.73
2018-06-27T09:42:29.150Z,21.67
2018-06-27T09:43:29.053Z,21.13
2018-06-27T09:44:29.069Z,20.66
2018-06-27T09:45:28.887Z,20.69
2018-06-27T09:46:28.837Z,20.53
2018-06-27T09:47:28.722Z,20.75
2018-06-27T09:48:28.641Z,20.54
2018-06-27T09:49:28.555Z,20.76
2018-06-27T09:50:28.514Z,20.79
2018-06-27T09:51:28.514Z,21.27
2018-06-27T09:52:28.311Z,21.73
2018-06-27T09:53:28.228Z,22.01
2018-06-27T09:54:28.142Z,22.24
2018-06-27T09:55:28.063Z,22.35
2018-06-27T09:56:28.011Z,22.46
2018-06-27T09:57:27.897Z,22.27
2018-06-27T09:58:27.907Z,22.72
2018-06-27T09:59:27.733Z,22.94
2018-06-27T10:00:27.651Z,22.89
2018-06-27T10:01:27.597Z,22.91
2018-06-27T10:02:27.490Z,22.38
2018-06-27T10:03:27.403Z,21.91
2018-06-27T10:04:27.322Z,21.61
2018-06-27T10:05:27.237Z,21.43
2018-06-27T10:06:27.189Z,20.97
2018-06-27T10:07:27.072Z,20.72
2018-06-27T10:08:26.992Z,20.60
2018-06-27T10:09:26.909Z,20.16
2018-06-27T10:10:26.828Z,20.02
2018-06-27T10:11:26.777Z,19.72
2018-06-27T10:12:26.659Z,19.52
2018-06-27T10:13:26.576Z,19.30
2018-06-27T10:14:26.539Z,19.12
2018-06-27T10:15:26.411Z,18.99
2018-06-27T10:16:26.372Z,18.82
2018-06-27T10:17:26.244Z,18.83
2018-06-27T10:18:26.158Z,18.86
2018-06-27T10:19:26.075Z,18.71
2018-06-27T10:20:25.995Z,18.76
2018-06-27T10:21:25.939Z,18.74
2018-06-27T10:22:25.840Z,19.35
2018-06-27T10:23:25.741Z,20.04
2018-06-27T10:24:25.658Z,20.82
2018-06-27T10:25:25.571Z,21.48
2018-06-27T10:26:25.518Z,22.04
2018-06-27T10:27:25.405Z,22.19
2018-06-27T10:28:25.357Z,22.44
2018-06-27T10:29:25.235Z,22.33
2018-06-27T10:30:25.153Z,22.49
2018-06-27T10:31:25.100Z,22.74
2018-06-27T10:32:24.981Z,22.79
2018-06-27T10:33:24.900Z,23.11
2018-06-27T10:34:24.818Z,23.56
2018-06-27T10:35:24.735Z,23.64
2018-06-27T10:36:24.680Z,23.68
2018-06-27T10:37:24.567Z,24.00
2018-06-27T10:38:24.483Z,24.44
2018-06-27T10:39:24.402Z,24.37
2018-06-27T10:40:24.316Z,24.39
2018-06-27T10:41:24.268Z,24.52
2018-06-27T10:42:24.158Z,24.75
2018-06-27T10:43:24.072Z,24.93
2018-06-27T10:44:24.000Z,24.18
2018-06-27T10:45:23.909Z,23.44
2018-06-27T10:46:23.859Z,22.52
2018-06-27T10:47:23.748Z,21.94
2018-06-27T10:48:23.668Z,21.96
2018-06-27T10:49:23.583Z,21.30
2018-06-27T10:50:23.499Z,21.30
2018-06-27T10:51:23.458Z,21.26
2018-06-27T10:52:23.337Z,21.18
2018-06-27T10:53:23.259Z,21.36
2018-06-27T10:54:23.177Z,21.36
2018-06-27T10:55:23.094Z,22.05
2018-06-27T10:56:23.041Z,22.41
2018-06-27T10:57:22.931Z,22.48
2018-06-27T10:58:22.845Z,22.79
2018-06-27T10:59:22.767Z,23.23
2018-06-27T11:00:22.693Z,22.96
2018-06-27T11:01:22.603Z,22.96
2018-06-27T11:02:22.554Z,22.93
2018-06-27T11:03:22.437Z,22.60
2018-06-27T11:04:22.356Z,22.84
2018-06-27T11:05:22.383Z,22.74
2018-06-27T11:06:22.195Z,22.42
2018-06-27T11:07:22.233Z,22.08
2018-06-27T11:08:22.027Z,21.75
2018-06-27T11:09:21.947Z,21.73
2018-06-27T11:10:21.863Z,21.49
2018-06-27T11:11:21.788Z,21.06
2018-06-27T11:12:22.517Z,20.64
2018-06-27T11:13:21.617Z,20.56
2018-06-27T11:14:21.537Z,20.57
2018-06-27T11:15:21.456Z,20.41
2018-06-27T11:16:21.372Z,20.26
2018-06-27T11:17:21.323Z,20.30
2018-06-27T11:18:21.209Z,20.40
2018-06-27T11:19:21.122Z,20.17
2018-06-27T11:20:21.088Z,20.22
2018-06-27T11:21:21.060Z,20.35
2018-06-27T11:22:20.912Z,20.41
2018-06-27T11:23:20.792Z,21.09
2018-06-27T11:24:20.708Z,21.38
2018-06-27T11:25:20.624Z,21.77
2018-06-27T11:26:20.543Z,22.49
2018-06-27T11:27:20.491Z,22.48
2018-06-27T11:28:20.469Z,21.91
2018-06-27T11:29:20.295Z,21.81
2018-06-27T11:30:20.211Z,21.52
2018-06-27T11:31:20.126Z,21.40
2018-06-27T11:32:20.078Z,21.15
2018-06-27T11:33:19.960Z,21.01
2018-06-27T11:34:19.877Z,20.69
2018-06-27T11:35:19.891Z,20.37
2018-06-27T11:36:19.710Z,19.87
2018-06-27T11:37:19.656Z,19.80
2018-06-27T11:38:19.566Z,19.65
2018-06-27T11:39:19.461Z,19.58
2018-06-27T11:40:19.378Z,19.75
2018-06-27T11:41:19.292Z,19.72
2018-06-27T11:42:19.334Z,19.76
2018-06-27T11:43:19.164Z,19.70
2018-06-27T11:44:19.041Z,19.83
2018-06-27T11:45:18.958Z,19.87
2018-06-27T11:46:18.873Z,19.89
2018-06-27T11:47:18.829Z,19.55
2018-06-27T11:48:18.707Z,19.43
2018-06-27T11:49:18.712Z,19.27
2018-06-27T11:50:18.534Z,19.42
2018-06-27T11:51:18.452Z,19.38
2018-06-27T11:52:18.398Z,19.53
2018-06-27T11:53:18.327Z,19.55
2018-06-27T11:54:18.198Z,19.64
2018-06-27T11:55:18.114Z,19.61
2018-06-27T11:56:18.119Z,19.65
2018-06-27T11:57:17.976Z,20.05
2018-06-27T11:58:17.860Z,20.12
2018-06-27T11:59:17.773Z,19.85
2018-06-27T12:00:17.688Z,19.83
2018-06-27T12:01:17.605Z,19.72
2018-06-27T12:02:17.557Z,19.86
2018-06-27T12:03:17.525Z,19.98
2018-06-27T12:04:17.350Z,20.56
2018-06-27T12:05:17.265Z,21.26
2018-06-27T12:06:17.177Z,21.93
2018-06-27T12:07:17.126Z,22.27
2018-06-27T12:08:17.007Z,22.11
2018-06-27T12:09:16.938Z,21.64
2018-06-27T12:10:16.948Z,21.33
2018-06-27T12:11:16.757Z,21.11
2018-06-27T12:12:16.705Z,20.83
2018-06-27T12:13:16.584Z,20.40
2018-06-27T12:14:16.505Z,20.25
2018-06-27T12:15:16.417Z,20.02
2018-06-27T12:16:16.335Z,19.86
2018-06-27T12:17:16.370Z,19.80
2018-06-27T12:18:16.163Z,19.83
2018-06-27T12:19:16.081Z,19.55
2018-06-27T12:20:16.016Z,19.55
2018-06-27T12:21:15.912Z,19.35
2018-06-27T12:22:15.860Z,19.30
2018-06-27T12:23:15.744Z,19.10
2018-06-27T12:24:15.754Z,18.97
2018-06-27T12:25:15.570Z,18.79
2018-06-27T12:26:15.483Z,18.76
2018-06-27T12:27:15.406Z,18.71
2018-06-27T12:28:15.349Z,18.66
2018-06-27T12:29:15.229Z,18.50
2018-06-27T12:30:15.269Z,18.66
2018-06-27T12:31:15.062Z,18.71
2018-06-27T12:32:14.979Z,18.79
2018-06-27T12:33:14.922Z,19.07
2018-06-27T12:34:14.805Z,19.15
2018-06-27T12:35:14.725Z,19.34
2018-06-27T12:36:14.634Z,19.40
2018-06-27T12:37:14.639Z,19.80
2018-06-27T12:38:14.493Z,19.83
2018-06-27T12:39:14.377Z,19.89
2018-06-27T12:40:14.291Z,19.98
2018-06-27T12:41:14.207Z,20.08
2018-06-27T12:42:14.124Z,20.22
2018-06-27T12:43:14.067Z,20.56
2018-06-27T12:44:13.949Z,20.56
2018-06-27T12:45:13.861Z,20.71
2018-06-27T12:46:13.779Z,20.73
2018-06-27T12:47:13.704Z,20.88
2018-06-27T12:48:13.641Z,20.78
2018-06-27T12:49:13.523Z,20.90
2018-06-27T12:50:13.518Z,21.08
2018-06-27T12:51:13.352Z,21.63
2018-06-27T12:52:13.270Z,21.68
2018-06-27T12:53:13.214Z,21.67